Date,TemperatureHighF,TemperatureAvgF,TemperatureLowF,DewpointHighF,DewpointAvgF,DewpointLowF,HumidityHigh,HumidityAvg,HumidityLow,PressureMaxIn,PressureMinIn,WindSpeedMaxMPH,WindSpeedAvgMPH,GustSpeedMaxMPH,PrecipitationSumIn
2014-3-1,53,44,35,34,28,18,71,56,43,30.33,30.21,8,1,10,0.00
2014-3-2,68,55,43,49,42,33,81,62,47,30.24,29.91,6,1,10,0.00
2014-3-3,58,47,35,53,44,34,97,88,62,30.12,29.74,9,1,13,0.33
2014-3-4,42,34,29,34,29,21,98,82,61,30.23,30.10,7,1,11,0.02
2014-3-5,56,41,28,37,30,21,91,68,41,30.22,30.07,4,1,8,0.00
2014-3-6,45,37,33,36,25,9,96,66,24,30.24,29.99,11,2,17,0.22
2014-3-7,54,43,36,44,40,36,98,89,67,30.06,29.94,3,0,6,0.11
2014-3-8,63,48,30,43,33,30,98,65,30,30.14,30.04,10,2,13,0.01
2014-3-9,63,54,46,42,36,29,74,52,35,30.12,30.03,8,2,13,0.00
2014-3-10,66,54,44,43,37,29,74,56,36,30.08,29.88,12,2,17,0.00
2014-3-11,73,59,44,45,41,35,79,54,28,29.91,29.70,9,2,13,0.00
2014-3-12,67,51,34,57,44,21,98,78,57,29.78,29.39,13,4,33,0.20
2014-3-13,44,36,28,21,14,7,71,43,22,30.28,29.79,14,5,22,0.00
2014-3-14,57,42,24,32,19,13,73,43,22,30.34,30.14,11,1,15,0.00
2014-3-15,65,54,39,38,33,30,75,48,28,30.14,29.99,7,1,14,0.00
2014-3-16,50,47,43,48,44,35,98,88,60,30.01,29.66,6,0,13,1.26
2014-3-17,48,40,35,47,40,34,98,96,93,29.89,29.68,5,1,7,0.62
2014-3-18,47,40,34,43,38,33,99,94,85,30.15,29.85,7,1,13,0.00
2014-3-19,53,45,40,46,43,40,98,91,77,30.16,30.03,4,1,9,0.03
2014-3-20,61,51,39,45,31,18,87,53,19,30.09,30.00,7,2,12,0.00
2014-3-21,62,47,30,31,25,22,80,49,22,30.19,30.07,7,1,10,0.00
2014-3-22,68,52,35,42,36,29,83,57,37,30.10,29.98,9,1,13,0.00
2014-3-23,55,48,40,48,39,26,93,73,42,30.13,29.93,9,1,13,0.01
2014-3-24,52,42,26,30,26,21,87,57,32,30.23,30.02,5,1,10,0.00
2014-3-25,43,37,28,37,25,8,94,63,43,30.11,29.88,16,4,20,0.07
2014-3-26,48,36,24,14,7,2,52,34,17,30.32,30.11,9,2,13,0.00
2014-3-27,56,41,25,29,19,12,74,45,22,30.42,30.23,9,2,17,0.00
2014-3-28,53,50,46,53,46,28,99,88,48,30.26,30.07,5,0,12,0.29
2014-3-29,60,52,40,59,50,36,99,94,81,30.08,29.68,12,2,18,0.40
2014-3-30,58,47,37,35,28,22,87,51,25,30.11,29.85,13,4,19,0.01
2014-3-31,75,54,32,32,25,17,76,40,12,30.19,30.05,7,1,10,0.00